Time;durP1;ratioP1;P1;durP2;ratioP2;P2;SDS_P1;SDS_P2;PMS_P1;PMS_P2;Temp;Humidity;BMP_temperature;BMP_pressure;BME280_temperature;BME280_humidity;BME280_pressure;Samples;Min_cycle;Max_cycle;Signal;HPM_P1;HPM_P2
2021/08/20 00:00:04;;;;;;;3.83;1.87;;;;;;;21.04;51.04;100409.59;5320544;27;20109;-82
2021/08/20 00:02:34;;;;;;;2.78;1.75;;;;;;;21.08;50.73;100406.66;5320586;27;20594;-82
2021/08/20 00:05:02;;;;;;;4.80;1.90;;;;;;;21.04;51.08;100413.13;5300899;27;20076;-81
2021/08/20 00:07:29;;;;;;;5.45;2.40;;;;;;;20.90;51.25;100404.91;5320835;27;20213;-81
2021/08/20 00:09:58;;;;;;;5.90;2.33;;;;;;;20.75;52.47;100414.53;5300897;27;20065;-82
2021/08/20 00:12:26;;;;;;;4.80;2.12;;;;;;;20.75;52.71;100414.53;5300793;27;20072;-82
2021/08/20 00:14:57;;;;;;;3.75;2.00;;;;;;;20.70;52.74;100408.53;5320130;27;20476;-83
2021/08/20 00:17:25;;;;;;;3.83;2.35;;;;;;;20.62;52.98;100413.37;5320406;27;20480;-81
2021/08/20 00:19:52;;;;;;;4.28;2.22;;;;;;;20.59;52.72;100411.72;5320507;27;20061;-82
2021/08/20 00:22:20;;;;;;;4.43;2.22;;;;;;;20.10;54.70;100403.28;5320226;27;20500;-82
2021/08/20 00:24:46;;;;;;;4.03;1.75;;;;;;;20.32;54.88;100405.81;5320305;27;20056;-81
2021/08/20 00:27:13;;;;;;;3.75;2.40;;;;;;;20.37;54.79;100405.63;5300416;27;20733;-81
2021/08/20 00:29:40;;;;;;;4.35;2.20;;;;;;;20.35;55.09;100407.47;5320279;27;20396;-81
2021/08/20 00:32:08;;;;;;;5.35;2.30;;;;;;;20.23;55.46;100408.91;5319561;27;20141;-82
2021/08/20 00:34:35;;;;;;;4.70;1.87;;;;;;;20.29;55.68;100410.44;5320593;27;20052;-81
2021/08/20 00:37:02;;;;;;;4.22;1.90;;;;;;;20.44;54.91;100409.72;5300237;27;20478;-82
2021/08/20 00:39:29;;;;;;;3.12;1.83;;;;;;;20.56;54.10;100408.31;5320780;27;20132;-81
2021/08/20 00:41:56;;;;;;;4.32;1.90;;;;;;;20.69;53.51;100406.81;5321154;27;20072;-82
2021/08/20 00:44:23;;;;;;;5.05;1.87;;;;;;;20.85;52.77;100409.59;5320239;27;20069;-81
2021/08/20 00:46:50;;;;;;;7.95;2.20;;;;;;;20.90;53.00;100407.59;5320221;27;20120;-81
2021/08/20 00:49:16;;;;;;;5.10;2.17;;;;;;;20.84;53.34;100406.06;5300663;27;20116;-81
2021/08/20 00:51:45;;;;;;;4.32;1.77;;;;;;;20.91;53.15;100416.44;5319791;27;20789;-81
2021/08/20 00:54:13;;;;;;;4.15;1.95;;;;;;;20.88;53.05;100412.12;5300765;27;20119;-82
2021/08/20 00:56:42;;;;;;;3.77;2.50;;;;;;;20.79;52.71;100410.75;5299987;27;20064;-82
2021/08/20 00:59:10;;;;;;;3.55;1.67;;;;;;;20.73;52.80;100416.37;5300157;27;20490;-82
2021/08/20 01:01:37;;;;;;;5.07;2.00;;;;;;;20.80;53.11;100409.84;5300393;27;20077;-82
2021/08/20 01:04:06;;;;;;;3.90;1.87;;;;;;;20.84;52.93;100407.88;5319727;27;20088;-81
2021/08/20 01:06:37;;;;;;;3.95;1.95;;;;;;;20.76;52.73;100404.69;5300189;27;20111;-82
2021/08/20 01:09:07;;;;;;;4.50;1.95;;;;;;;20.91;52.42;100416.44;5301149;27;20449;-81
2021/08/20 01:11:35;;;;;;;2.50;1.70;;;;;;;21.00;52.18;100419.56;5319844;27;20080;-81
2021/08/20 01:14:03;;;;;;;4.82;1.98;;;;;;;20.99;51.96;100416.94;5319919;27;20076;-82
2021/08/20 01:16:34;;;;;;;3.75;1.95;;;;;;;21.01;51.64;100410.59;5319665;27;20475;-82
2021/08/20 01:19:01;;;;;;;5.50;2.08;;;;;;;21.07;51.83;100407.63;5300468;27;20828;-81
2021/08/20 01:21:28;;;;;;;5.70;2.75;;;;;;;21.04;52.18;100405.09;5299994;27;20056;-82
2021/08/20 01:23:57;;;;;;;2.83;1.65;;;;;;;21.22;52.03;100408.66;5320110;27;20487;-82
2021/08/20 01:26:26;;;;;;;3.00;2.15;;;;;;;21.28;52.22;100416.37;5299847;27;20053;-81
2021/08/20 01:28:53;;;;;;;5.72;1.98;;;;;;;21.27;52.48;100421.81;5320291;27;20764;-81
2021/08/20 01:31:20;;;;;;;5.62;2.37;;;;;;;21.19;52.19;100406.16;5319772;27;20120;-81
2021/08/20 01:33:47;;;;;;;7.43;2.15;;;;;;;21.02;52.39;100409.66;5320183;27;20442;-82
2021/08/20 01:36:14;;;;;;;3.33;1.83;;;;;;;21.08;52.58;100409.34;5320312;27;20064;-81
2021/08/20 01:38:55;;;;;;;2.75;1.87;;;;;;;20.93;53.45;100404.75;5320314;27;20361;-81
2021/08/20 01:41:25;;;;;;;4.28;1.83;;;;;;;21.06;52.96;100411.25;5318298;27;20119;-81
2021/08/20 01:43:53;;;;;;;6.40;2.58;;;;;;;21.04;52.84;100406.91;5300948;27;20061;-82
2021/08/20 01:46:20;;;;;;;4.72;2.20;;;;;;;20.97;53.25;100400.13;5320662;27;20128;-82
2021/08/20 01:48:49;;;;;;;5.37;2.45;;;;;;;21.07;52.93;100393.41;5320700;27;20052;-81
2021/08/20 01:51:23;;;;;;;3.75;2.37;;;;;;;21.07;52.92;100398.75;5301216;27;20087;-81
2021/08/20 01:53:51;;;;;;;4.22;2.20;;;;;;;21.07;53.04;100398.75;5300859;27;20070;-81
2021/08/20 01:56:21;;;;;;;3.55;2.28;;;;;;;20.94;54.16;100393.16;5321139;27;20052;-82
2021/08/20 01:58:49;;;;;;;;;;;;;;;20.93;54.59;100396.75;5301070;27;20080;-82
2021/08/20 02:01:27;;;;;;;5.00;2.92;;;;;;;21.19;53.91;100399.94;5321054;27;19972;-81
2021/08/20 02:03:54;;;;;;;4.18;1.75;;;;;;;21.17;53.39;100399.16;5301305;27;20107;-81
2021/08/20 02:06:21;;;;;;;4.75;2.22;;;;;;;21.28;52.72;100391.47;5320864;27;20062;-82
2021/08/20 02:08:48;;;;;;;5.18;2.55;;;;;;;21.27;52.80;100405.78;5320572;27;20407;-82
2021/08/20 02:11:15;;;;;;;5.43;2.95;;;;;;;21.06;53.59;100399.66;5300405;27;20485;-81
2021/08/20 02:13:43;;;;;;;4.07;2.08;;;;;;;21.03;54.25;100397.16;5320563;27;20122;-82
2021/08/20 02:16:10;;;;;;;4.68;2.42;;;;;;;21.17;54.27;100400.00;5320754;27;20266;-81
2021/08/20 02:18:37;;;;;;;8.45;2.70;;;;;;;21.36;53.88;100399.13;5320820;27;20061;-81
2021/08/20 02:21:04;;;;;;;5.30;2.30;;;;;;;21.35;54.62;100392.87;5320777;27;20099;-82
2021/08/20 02:23:32;;;;;;;5.60;2.62;;;;;;;21.17;55.22;100396.47;5300677;27;20121;-82
2021/08/20 02:25:59;;;;;;;3.92;1.92;;;;;;;20.67;57.36;100389.13;5320299;27;20057;-81
2021/08/20 02:28:26;;;;;;;6.30;2.47;;;;;;;20.89;56.55;100391.66;5320383;27;20130;-81
2021/08/20 02:30:53;;;;;;;4.45;2.08;;;;;;;20.68;57.51;100386.41;5320162;27;20667;-81
2021/08/20 02:33:20;;;;;;;7.30;2.30;;;;;;;20.84;56.71;100392.72;5320311;27;20116;-81
2021/08/20 02:35:47;;;;;;;4.65;2.50;;;;;;;20.99;55.82;100383.09;5300180;27;20091;-81
2021/08/20 02:38:14;;;;;;;4.75;2.22;;;;;;;21.03;55.74;100387.34;5319809;27;20404;-81
2021/08/20 02:40:41;;;;;;;3.55;2.30;;;;;;;21.08;55.29;100385.31;5300563;27;20819;-82
2021/08/20 02:43:08;;;;;;;4.15;2.30;;;;;;;20.93;56.17;100387.88;5320513;27;20542;-81
2021/08/20 02:45:35;;;;;;;3.08;2.30;;;;;;;21.02;55.53;100388.28;5320436;27;20076;-81
2021/08/20 02:48:02;;;;;;;4.47;2.58;;;;;;;20.82;56.20;100383.03;5300526;27;20502;-82
2021/08/20 02:50:28;;;;;;;6.00;2.45;;;;;;;21.04;55.69;100389.06;5300297;27;20128;-81
2021/08/20 02:52:55;;;;;;;2.58;1.67;;;;;;;21.18;55.21;100377.72;5320082;26;20089;-81
2021/08/20 02:55:22;;;;;;;4.43;2.22;;;;;;;21.21;55.20;100379.37;5319828;27;20061;-81
2021/08/20 02:57:49;;;;;;;3.75;2.33;;;;;;;21.08;55.56;100384.44;5318458;27;20075;-82
2021/08/20 03:00:16;;;;;;;3.30;1.85;;;;;;;21.13;55.75;100379.75;5300407;27;20060;-81
2021/08/20 03:02:44;;;;;;;3.10;1.60;;;;;;;21.07;55.75;100377.38;5320082;27;20156;-81
2021/08/20 03:05:11;;;;;;;4.53;1.80;;;;;;;21.07;56.09;100383.59;5320667;27;20056;-81
2021/08/20 03:07:38;;;;;;;6.60;1.83;;;;;;;21.20;55.72;100377.62;5300430;27;20080;-81
2021/08/20 03:10:05;;;;;;;3.33;2.05;;;;;;;21.13;55.99;100369.06;5320541;27;20065;-81
2021/08/20 03:12:32;;;;;;;3.53;2.22;;;;;;;20.99;56.54;100379.56;5320359;27;20048;-81
2021/08/20 03:14:59;;;;;;;3.53;1.98;;;;;;;21.02;55.95;100374.94;5320010;27;20438;-81
2021/08/20 03:17:26;;;;;;;3.37;2.10;;;;;;;21.20;55.14;100380.28;5320003;27;20660;-82
2021/08/20 03:19:53;;;;;;;2.87;1.83;;;;;;;21.23;54.98;100378.31;5320305;27;20057;-81
2021/08/20 03:22:20;;;;;;;6.87;3.22;;;;;;;21.20;54.90;100377.62;5320501;27;20099;-81
2021/08/20 03:24:47;;;;;;;2.97;2.08;;;;;;;21.43;54.39;100379.16;5319787;27;20056;-82
2021/08/20 03:27:14;;;;;;;4.80;2.55;;;;;;;21.49;54.67;100379.72;5319906;27;20112;-82
2021/08/20 03:29:41;;;;;;;5.82;1.98;;;;;;;21.17;55.48;100378.63;5300694;27;20029;-82
2021/08/20 03:32:08;;;;;;;5.10;2.00;;;;;;;21.25;55.16;100379.13;5319864;27;20068;-81
2021/08/20 03:34:35;;;;;;;4.00;2.20;;;;;;;21.25;55.17;100380.94;5300292;27;20128;-82
2021/08/20 03:37:02;;;;;;;4.65;2.42;;;;;;;21.26;55.22;100382.66;5320473;27;20429;-81
2021/08/20 03:39:29;;;;;;;3.80;2.53;;;;;;;21.26;55.43;100393.34;5320191;27;20070;-81
2021/08/20 03:41:59;;;;;;;5.95;2.37;;;;;;;21.22;55.46;100387.28;5320130;27;20076;-82
2021/08/20 03:44:26;;;;;;;4.75;2.03;;;;;;;21.18;55.38;100392.84;5320478;27;20131;-81
2021/08/20 03:46:53;;;;;;;5.45;2.80;;;;;;;21.27;55.12;100403.13;5320222;27;20171;-82
2021/08/20 03:49:20;;;;;;;5.70;2.20;;;;;;;21.24;54.73;100401.47;5300265;27;20061;-81
2021/08/20 03:51:47;;;;;;;8.65;2.53;;;;;;;21.30;54.70;100398.47;5300496;27;20120;-81
2021/08/20 03:54:14;;;;;;;7.00;2.15;;;;;;;21.31;54.69;100396.66;5319869;27;20124;-82
2021/08/20 03:56:41;;;;;;;2.35;1.67;;;;;;;21.32;54.49;100398.38;5319962;27;20406;-81
2021/08/20 03:59:08;;;;;;;3.65;2.10;;;;;;;21.13;54.36;100397.59;5319986;27;20117;-81
2021/08/20 04:01:35;;;;;;;3.28;2.10;;;;;;;21.39;53.86;100394.50;5319918;27;20048;-82
2021/08/20 04:04:02;;;;;;;3.58;2.20;;;;;;;21.53;53.90;100401.81;5299920;27;20041;-82
2021/08/20 04:06:29;;;;;;;3.70;1.92;;;;;;;21.51;54.07;100406.37;5319679;27;20474;-82
2021/08/20 04:08:56;;;;;;;5.20;1.95;;;;;;;21.22;55.61;100416.69;5320147;27;20060;-82
2021/08/20 04:11:23;;;;;;;5.62;2.35;;;;;;;21.02;56.30;100417.66;5319671;27;20052;-81
2021/08/20 04:13:50;;;;;;;4.80;2.28;;;;;;;21.11;56.15;100416.34;5319930;27;20315;-81
2021/08/20 04:16:16;;;;;;;6.32;3.00;;;;;;;21.16;55.71;100418.81;5300847;27;20074;-81
2021/08/20 04:18:43;;;;;;;4.35;1.98;;;;;;;21.13;55.55;100414.47;5320235;27;20061;-82
2021/08/20 04:21:10;;;;;;;5.82;2.28;;;;;;;21.18;55.44;100414.22;5320191;27;20056;-81
2021/08/20 04:23:37;;;;;;;3.30;2.42;;;;;;;21.05;55.59;100414.84;5300690;27;20049;-81
2021/08/20 04:26:05;;;;;;;4.65;2.05;;;;;;;20.92;55.71;100416.41;5317694;27;20125;-81
2021/08/20 04:28:32;;;;;;;4.75;2.40;;;;;;;20.90;56.19;100418.25;5300033;27;20105;-81
2021/08/20 04:30:58;;;;;;;4.70;2.10;;;;;;;20.86;57.14;100408.69;5300425;27;20103;-81
2021/08/20 04:33:25;;;;;;;4.43;2.40;;;;;;;20.90;57.52;100412.91;5319746;27;20050;-81
2021/08/20 04:35:52;;;;;;;5.12;2.40;;;;;;;20.92;57.38;100419.06;5300538;27;20113;-80
2021/08/20 04:38:19;;;;;;;3.17;1.92;;;;;;;21.13;56.04;100413.63;5319843;27;20446;-81
2021/08/20 04:40:46;;;;;;;3.75;2.00;;;;;;;21.22;54.89;100418.50;5300067;27;20444;-81
2021/08/20 04:43:13;;;;;;;3.35;1.90;;;;;;;21.14;54.58;100410.00;5319949;27;20410;-82
2021/08/20 04:45:40;;;;;;;2.78;1.90;;;;;;;21.04;55.25;100421.13;5319834;27;20064;-81
2021/08/20 04:48:07;;;;;;;6.22;2.40;;;;;;;21.22;54.93;100418.50;5319824;27;20074;-81
2021/08/20 04:50:34;;;;;;;6.55;2.40;;;;;;;21.18;56.04;100422.25;5319794;27;20066;-81
2021/08/20 04:53:01;;;;;;;6.75;2.75;;;;;;;21.23;56.78;100426.44;5300034;27;20081;-82
2021/08/20 04:55:27;;;;;;;7.00;2.53;;;;;;;21.12;57.97;100427.88;5317804;27;20116;-81
2021/08/20 04:57:54;;;;;;;5.12;2.10;;;;;;;21.20;57.29;100423.91;5319860;27;20121;-81
2021/08/20 05:00:21;;;;;;;4.65;2.10;;;;;;;21.22;57.63;100434.53;5319656;27;20466;-81
2021/08/20 05:02:48;;;;;;;3.08;1.95;;;;;;;20.98;57.90;100437.47;5319743;27;20053;-82
2021/08/20 05:05:16;;;;;;;5.15;2.92;;;;;;;21.32;56.68;100435.78;5319666;27;20064;-82
2021/08/20 05:07:43;;;;;;;2.92;1.80;;;;;;;21.46;56.62;100437.81;5319733;27;20053;-81
2021/08/20 05:10:11;;;;;;;3.15;1.70;;;;;;;21.67;55.14;100438.53;5319591;27;20702;-82
2021/08/20 05:12:39;;;;;;;6.00;1.92;;;;;;;21.58;55.65;100439.00;5319421;27;20133;-81
2021/08/20 05:15:08;;;;;;;3.97;2.15;;;;;;;21.64;55.83;100442.22;5299722;27;20119;-82
2021/08/20 05:17:35;;;;;;;3.78;1.98;;;;;;;21.90;53.64;100437.34;5319278;27;20056;-82
2021/08/20 05:20:02;;;;;;;5.10;2.15;;;;;;;21.81;53.81;100438.69;5319438;27;20056;-81
2021/08/20 05:22:51;;;;;;;3.83;1.87;;;;;;;22.03;53.45;100441.13;5299454;27;20053;-82
2021/08/20 05:25:20;;;;;;;4.10;1.95;;;;;;;22.11;53.34;100438.03;5319613;27;20472;-81
2021/08/20 05:27:48;;;;;;;3.80;1.83;;;;;;;21.92;55.08;100440.81;5319215;27;20114;-82
2021/08/20 05:30:16;;;;;;;3.67;1.98;;;;;;;21.97;54.36;100439.63;5319411;27;20049;-82
2021/08/20 05:32:43;;;;;;;3.25;1.92;;;;;;;21.97;55.11;100438.75;5319339;27;20048;-82
2021/08/20 05:35:13;;;;;;;3.30;1.73;;;;;;;22.19;55.50;100433.16;5319345;27;20061;-81
2021/08/20 05:37:40;;;;;;;8.90;2.35;;;;;;;22.14;55.89;100440.53;5321308;27;20082;-81
2021/08/20 05:40:08;;;;;;;4.75;2.53;;;;;;;22.00;55.53;100442.16;5321105;27;20057;-82
2021/08/20 05:42:35;;;;;;;3.50;2.53;;;;;;;22.36;54.60;100448.34;5320920;27;20413;-81
2021/08/20 05:45:02;;;;;;;3.92;2.03;;;;;;;22.37;53.53;100448.22;5301080;27;20102;-82
2021/08/20 05:47:29;;;;;;;4.95;1.90;;;;;;;22.50;52.93;100453.81;5320897;27;20065;-82
2021/08/20 05:49:57;;;;;;;4.10;2.05;;;;;;;22.63;52.34;100454.00;5301035;27;20101;-82
2021/08/20 05:52:24;;;;;;;2.72;1.85;;;;;;;22.51;53.22;100449.31;5319952;27;20106;-82
2021/08/20 05:54:52;;;;;;;4.05;2.30;;;;;;;22.68;52.63;100451.94;5318385;27;20083;-82
2021/08/20 05:57:19;;;;;;;6.37;2.33;;;;;;;22.75;53.89;100453.31;5319949;27;20068;-82
2021/08/20 05:59:46;;;;;;;5.53;2.67;;;;;;;23.08;51.65;100452.38;5299899;27;20056;-82
2021/08/20 06:02:13;;;;;;;4.25;2.08;;;;;;;23.34;49.44;100451.75;5319805;27;20061;-82
2021/08/20 06:04:40;;;;;;;4.22;2.60;;;;;;;23.55;49.10;100449.63;5319508;27;20060;-82
2021/08/20 06:07:07;;;;;;;6.22;2.53;;;;;;;23.14;52.65;100452.03;5319640;27;20091;-82
2021/08/20 06:09:34;;;;;;;3.90;2.50;;;;;;;23.22;52.25;100452.47;5319656;27;20092;-82
2021/08/20 06:12:01;;;;;;;6.95;2.33;;;;;;;23.38;52.33;100456.94;5299707;27;20055;-82
2021/08/20 06:14:28;;;;;;;4.10;2.40;;;;;;;23.49;51.88;100451.81;5299386;27;20056;-83
2021/08/20 06:16:55;;;;;;;7.35;3.28;;;;;;;23.88;51.00;100456.66;5319560;27;20073;-81
2021/08/20 06:19:23;;;;;;;7.97;3.00;;;;;;;24.03;50.05;100457.53;5319132;27;20061;-82
2021/08/20 06:21:51;;;;;;;6.47;2.80;;;;;;;24.09;50.25;100456.31;5319292;27;20049;-81
2021/08/20 06:24:18;;;;;;;10.18;2.92;;;;;;;24.20;50.23;100456.53;5319226;27;20060;-82
2021/08/20 06:26:46;;;;;;;6.12;2.67;;;;;;;24.52;49.71;100459.91;5319121;27;20067;-82
2021/08/20 06:29:13;;;;;;;5.65;2.70;;;;;;;24.49;49.99;100462.81;5299955;27;20591;-81
2021/08/20 06:31:48;;;;;;;5.62;2.62;;;;;;;24.69;51.07;100457.03;5301596;27;20061;-82
2021/08/20 06:34:16;;;;;;;5.90;2.62;;;;;;;25.04;48.49;100447.66;5300456;27;20122;-82
2021/08/20 06:36:44;;;;;;;2.90;2.15;;;;;;;25.05;48.22;100446.69;5320356;27;20112;-83
2021/08/20 06:39:11;;;;;;;4.05;1.60;;;;;;;24.91;47.00;100443.09;5320285;27;20061;-82
2021/08/20 06:41:39;;;;;;;3.78;1.90;;;;;;;24.95;47.18;100449.12;5320547;27;20119;-82
2021/08/20 06:44:06;;;;;;;5.30;2.37;;;;;;;25.07;46.36;100451.00;5300279;27;20068;-81
2021/08/20 06:46:33;;;;;;;3.47;1.90;;;;;;;24.97;46.97;100455.25;5320380;27;20081;-82
2021/08/20 06:49:00;;;;;;;5.40;2.05;;;;;;;25.24;44.98;100447.25;5320312;27;20053;-82
2021/08/20 06:51:27;;;;;;;2.15;1.50;;;;;;;25.48;45.08;100458.19;5319817;27;20053;-82
2021/08/20 06:53:54;;;;;;;8.23;2.12;;;;;;;25.67;44.10;100456.94;5319788;27;20214;-81
2021/08/20 06:56:21;;;;;;;8.35;2.50;;;;;;;25.74;44.10;100456.44;5319512;27;20087;-83
2021/08/20 06:58:47;;;;;;;5.37;2.53;;;;;;;25.74;46.85;100459.12;5318114;27;20071;-81
2021/08/20 07:01:16;;;;;;;7.45;2.30;;;;;;;25.77;46.24;100456.22;5319656;27;20115;-81
2021/08/20 07:03:43;;;;;;;4.60;3.10;;;;;;;25.93;45.92;100453.38;5300439;27;20101;-82
2021/08/20 07:06:21;;;;;;;4.97;2.50;;;;;;;25.94;46.82;100457.81;5319719;27;20137;-82
2021/08/20 07:08:49;;;;;;;7.62;2.40;;;;;;;26.26;45.39;100460.06;5319940;27;20112;-82
2021/08/20 07:11:18;;;;;;;4.40;2.15;;;;;;;26.39;44.85;100454.69;5300209;27;20067;-82
2021/08/20 07:13:45;;;;;;;6.68;2.15;;;;;;;26.72;44.37;100449.59;5300254;27;20076;-81
2021/08/20 07:16:12;;;;;;;4.10;2.28;;;;;;;26.72;44.37;100454.13;5319928;27;20422;-82
2021/08/20 07:18:40;;;;;;;6.03;2.22;;;;;;;26.96;42.38;100451.47;5320024;27;20062;-82
2021/08/20 07:21:07;;;;;;;5.87;1.70;;;;;;;27.14;42.92;100450.09;5319930;27;20064;-82
2021/08/20 07:23:34;;;;;;;4.62;2.10;;;;;;;27.64;41.08;100450.84;5319868;27;20053;-82
2021/08/20 07:26:04;;;;;;;5.20;2.30;;;;;;;27.83;38.12;100441.41;5319767;27;20080;-81
2021/08/20 07:28:31;;;;;;;4.37;1.83;;;;;;;27.91;35.50;100441.63;5319852;27;20063;-83
2021/08/20 07:30:58;;;;;;;6.25;2.60;;;;;;;28.09;35.58;100436.66;5319512;27;20395;-83
2021/08/20 07:33:26;;;;;;;2.75;1.98;;;;;;;28.52;35.33;100442.22;5299809;27;20061;-82
2021/08/20 07:35:53;;;;;;;2.97;1.92;;;;;;;28.79;35.73;100440.97;5319871;27;20088;-82
2021/08/20 07:38:20;;;;;;;5.50;2.28;;;;;;;28.89;35.17;100435.69;5319887;27;20112;-81
2021/08/20 07:40:47;;;;;;;5.62;3.00;;;;;;;29.12;36.44;100440.09;5319660;27;20053;-82
2021/08/20 07:43:14;;;;;;;3.72;2.17;;;;;;;29.49;36.33;100441.56;5319829;27;20068;-82
2021/08/20 07:45:41;;;;;;;2.90;1.62;;;;;;;29.88;34.11;100442.75;5319424;27;20430;-81
2021/08/20 07:48:09;;;;;;;4.05;2.90;;;;;;;30.23;32.60;100437.00;5319883;27;20064;-82
2021/08/20 07:50:36;;;;;;;5.32;2.42;;;;;;;30.37;35.61;100443.91;5319456;27;20064;-81
2021/08/20 07:53:03;;;;;;;5.53;2.00;;;;;;;30.26;35.17;100447.56;5319657;27;20056;-82
2021/08/20 07:55:30;;;;;;;10.43;2.40;;;;;;;30.43;34.13;100443.38;5319288;27;20105;-82
2021/08/20 07:57:57;;;;;;;3.40;2.40;;;;;;;30.58;34.06;100434.88;5319437;27;20394;-81
2021/08/20 08:00:26;;;;;;;5.72;2.62;;;;;;;30.39;34.03;100441.09;5319380;27;20073;-81
2021/08/20 08:02:54;;;;;;;3.75;2.85;;;;;;;30.70;32.68;100439.19;5319803;27;20195;-81
2021/08/20 08:05:23;;;;;;;6.70;3.72;;;;;;;30.72;31.96;100437.22;5319930;27;20075;-81
2021/08/20 08:07:53;;;;;;;4.40;3.05;;;;;;;30.53;34.23;100454.25;5319719;27;20052;-80
2021/08/20 08:10:20;;;;;;;6.90;4.95;;;;;;;30.52;33.48;100445.28;5319632;27;20432;-81
2021/08/20 08:12:47;;;;;;;5.47;3.58;;;;;;;30.58;31.84;100452.00;5319437;27;20116;-82
2021/08/20 08:15:14;;;;;;;6.07;3.85;;;;;;;30.73;32.08;100447.91;5319656;27;20057;-84
2021/08/20 08:17:42;;;;;;;6.15;4.22;;;;;;;30.87;30.20;100445.84;5299674;27;20060;-83
2021/08/20 08:20:11;;;;;;;5.60;3.60;;;;;;;31.05;33.14;100443.31;5299623;27;20064;-83
2021/08/20 08:22:38;;;;;;;4.57;3.22;;;;;;;31.24;33.39;100448.78;5299916;27;20080;-81
2021/08/20 08:25:06;;;;;;;5.28;3.30;;;;;;;31.51;32.33;100448.13;5299837;27;20087;-82
2021/08/20 08:27:47;;;;;;;4.30;2.80;;;;;;;32.03;29.56;100440.53;5299702;27;20053;-81
2021/08/20 08:30:14;;;;;;;3.65;2.83;;;;;;;32.10;29.67;100441.63;5299555;27;21032;-83
2021/08/20 08:32:41;;;;;;;3.72;2.58;;;;;;;32.11;31.91;100442.50;5319475;27;20056;-82
2021/08/20 08:35:08;;;;;;;2.62;1.33;;;;;;;32.00;29.59;100445.38;5299691;27;20107;-82
2021/08/20 08:37:36;;;;;;;3.78;1.98;;;;;;;32.48;25.17;100436.25;5319410;27;20067;-83
2021/08/20 08:40:03;;;;;;;3.62;1.80;;;;;;;32.65;25.82;100440.91;5319385;27;20116;-82
2021/08/20 08:42:30;;;;;;;2.60;1.73;;;;;;;32.52;28.96;100438.50;5319423;27;20056;-83
2021/08/20 08:44:57;;;;;;;3.03;1.90;;;;;;;32.73;28.82;100440.13;5319366;27;20127;-82
2021/08/20 08:47:27;;;;;;;3.25;1.95;;;;;;;32.81;29.44;100445.69;5319241;27;20116;-83
2021/08/20 08:49:55;;;;;;;3.55;1.33;;;;;;;33.14;27.69;100444.22;5299836;27;20079;-83
2021/08/20 08:52:22;;;;;;;2.97;1.70;;;;;;;33.49;25.20;100450.69;5318691;27;20118;-82
2021/08/20 08:54:49;;;;;;;3.20;1.73;;;;;;;33.69;26.31;100451.41;5319357;27;20466;-82
2021/08/20 08:57:18;;;;;;;3.15;1.75;;;;;;;34.12;26.93;100441.53;5318978;27;20107;-82
2021/08/20 08:59:45;;;;;;;4.75;1.50;;;;;;;33.44;24.54;100448.44;5319503;27;20051;-82
2021/08/20 09:02:20;;;;;;;2.78;1.67;;;;;;;33.73;25.21;100444.63;5299466;27;20856;-82
2021/08/20 09:05:06;;;;;;;4.90;1.83;;;;;;;34.32;25.19;100434.81;5319454;27;20474;-82
2021/08/20 09:07:36;;;;;;;5.28;1.90;;;;;;;34.52;24.53;100442.78;5319250;27;20127;-82
2021/08/20 09:10:14;;;;;;;2.67;1.83;;;;;;;34.38;26.19;100441.50;5299550;27;20056;-83
2021/08/20 09:12:58;;;;;;;3.25;1.90;;;;;;;34.58;27.05;100443.00;5299429;27;20061;-83
2021/08/20 09:15:29;;;;;;;6.18;2.05;;;;;;;34.82;25.24;100436.78;5319416;27;20591;-83
2021/08/20 09:17:59;;;;;;;3.30;1.90;;;;;;;35.10;27.75;100435.72;5319174;27;20052;-83
2021/08/20 09:20:29;;;;;;;4.60;2.17;;;;;;;35.36;27.45;100436.47;5299804;27;20052;-83
2021/08/20 09:22:58;;;;;;;3.45;2.00;;;;;;;35.54;27.30;100443.66;5319156;27;20076;-83
2021/08/20 09:25:36;;;;;;;2.10;1.40;;;;;;;35.63;26.51;100434.44;5319281;27;20524;-83
2021/08/20 09:28:18;;;;;;;3.58;1.98;;;;;;;35.88;24.18;100435.28;5299335;27;20075;-83
2021/08/20 09:30:54;;;;;;;3.12;1.92;;;;;;;35.70;26.03;100444.50;5299498;27;20120;-83
2021/08/20 09:33:26;;;;;;;2.92;1.45;;;;;;;36.16;25.90;100435.78;5299100;27;20364;-82
2021/08/20 09:36:03;;;;;;;2.30;1.73;;;;;;;36.25;25.01;100437.47;5319105;27;20116;-83
2021/08/20 09:38:33;;;;;;;4.03;2.10;;;;;;;36.13;24.71;100438.88;5319358;27;20053;-83
2021/08/20 09:41:04;;;;;;;3.92;1.55;;;;;;;36.24;24.49;100434.91;5299663;27;20059;-83
2021/08/20 09:43:34;;;;;;;2.00;1.50;;;;;;;36.11;24.23;100429.97;5299206;27;20120;-82
2021/08/20 09:46:13;;;;;;;3.17;1.60;;;;;;;36.39;23.29;100428.53;5299361;27;20103;-82
2021/08/20 09:48:49;;;;;;;2.45;1.50;;;;;;;36.51;23.15;100436.38;5299480;27;20327;-84
2021/08/20 09:51:46;;;;;;;3.58;1.58;;;;;;;36.59;21.69;100434.50;5319104;27;20453;-83
2021/08/20 09:54:23;;;;;;;2.72;1.65;;;;;;;36.87;21.36;100430.41;5318956;27;20056;-83
2021/08/20 09:56:59;;;;;;;3.53;2.10;;;;;;;36.94;21.20;100434.13;5318967;27;20073;-83
2021/08/20 09:59:30;;;;;;;3.62;1.62;;;;;;;37.05;21.87;100431.88;5299284;27;20069;-83
2021/08/20 10:02:03;;;;;;;2.53;1.55;;;;;;;37.24;21.85;100427.84;5299128;27;20070;-83
2021/08/20 10:04:33;;;;;;;2.92;1.90;;;;;;;37.20;22.42;100426.47;5299820;27;20079;-83
2021/08/20 10:07:01;;;;;;;2.70;1.52;;;;;;;37.69;21.23;100425.28;5319805;27;20079;-84
2021/08/20 10:09:29;;;;;;;3.35;1.80;;;;;;;38.01;21.13;100423.31;5300043;27;20069;-83
2021/08/20 10:11:59;;;;;;;6.55;1.95;;;;;;;38.00;20.74;100421.56;5300125;27;20053;-83
2021/08/20 10:14:29;;;;;;;3.47;1.42;;;;;;;38.20;22.53;100413.66;5299947;27;20999;-83
2021/08/20 10:16:56;;;;;;;2.17;1.50;;;;;;;38.22;20.71;100420.66;5300461;27;20242;-83
2021/08/20 10:19:24;;;;;;;2.87;1.75;;;;;;;38.28;19.98;100414.41;5300026;27;20057;-83
2021/08/20 10:21:51;;;;;;;3.95;1.80;;;;;;;38.15;20.67;100422.44;5319661;27;20336;-82
2021/08/20 10:24:18;;;;;;;3.10;1.65;;;;;;;38.42;21.10;100415.50;5300514;27;20075;-84
2021/08/20 10:26:52;;;;;;;3.33;1.73;;;;;;;38.38;20.37;100409.47;5319819;27;20084;-83
2021/08/20 10:29:25;;;;;;;2.65;1.50;;;;;;;38.25;20.04;100417.53;5300037;27;20052;-83
2021/08/20 10:31:53;;;;;;;4.87;1.77;;;;;;;38.17;20.26;100420.37;5300231;27;20053;-83
2021/08/20 10:34:39;;;;;;;2.60;1.77;;;;;;;37.83;20.89;100415.38;5319657;27;20455;-83
2021/08/20 10:37:14;;;;;;;4.12;1.70;;;;;;;37.83;21.91;100420.84;5319738;27;20449;-83
2021/08/20 10:39:47;;;;;;;2.50;1.35;;;;;;;37.80;19.54;100413.87;5300044;27;20480;-82
2021/08/20 10:42:18;;;;;;;3.62;1.60;;;;;;;37.73;19.86;100419.22;5319641;27;20254;-82
2021/08/20 10:45:02;;;;;;;2.17;1.50;;;;;;;37.70;19.85;100408.62;5319905;27;20071;-83
2021/08/20 10:47:32;;;;;;;4.05;1.58;;;;;;;37.83;19.67;100415.38;5319905;27;20151;-83
2021/08/20 10:50:12;;;;;;;2.65;1.58;;;;;;;37.63;19.39;100406.84;5319781;27;20541;-83
2021/08/20 10:52:42;;;;;;;2.53;1.52;;;;;;;37.56;19.62;100406.69;5299716;27;20150;-83
2021/08/20 10:55:10;;;;;;;3.97;1.73;;;;;;;37.83;20.52;100402.53;5299881;27;20076;-83
2021/08/20 10:57:39;;;;;;;2.75;1.52;;;;;;;37.83;19.85;100398.91;5300511;27;20754;-83
2021/08/20 11:00:07;;;;;;;5.10;1.60;;;;;;;37.99;18.98;100404.28;5299489;27;20064;-83
2021/08/20 11:02:42;;;;;;;2.53;1.37;;;;;;;37.99;18.76;100400.69;5299876;27;20120;-83
2021/08/20 11:05:11;;;;;;;3.20;1.45;;;;;;;37.90;18.62;100399.87;5299819;27;20073;-83
2021/08/20 11:07:38;;;;;;;2.95;1.83;;;;;;;37.85;19.10;100399.59;5300070;27;20079;-83
2021/08/20 11:10:11;;;;;;;1.73;1.25;;;;;;;37.63;18.15;100399.47;5319882;27;20067;-83
2021/08/20 11:12:59;;;;;;;4.03;1.77;;;;;;;37.79;18.23;100408.56;5299971;27;20077;-83
2021/08/20 11:15:30;;;;;;;2.25;1.85;;;;;;;37.84;17.96;100395.16;5319682;27;20542;-83
2021/08/20 11:18:05;;;;;;;2.97;1.60;;;;;;;37.68;19.15;100402.50;5319581;27;20128;-83
2021/08/20 11:20:44;;;;;;;3.37;1.70;;;;;;;37.73;18.86;100401.94;5319722;27;20069;-83
2021/08/20 11:23:11;;;;;;;2.87;1.60;;;;;;;37.42;19.39;100402.00;5300110;27;20120;-83
2021/08/20 11:25:38;;;;;;;3.15;1.55;;;;;;;37.36;19.67;100406.34;5300134;27;20060;-83
2021/08/20 11:28:05;;;;;;;3.10;1.23;;;;;;;37.15;20.03;100398.78;5299935;27;20118;-83
2021/08/20 11:30:36;;;;;;;4.35;1.33;;;;;;;37.12;20.01;100396.37;5319682;27;20056;-82